createdAt,value
2023-03-05T00:00:08.634Z,80.02
2023-03-05T00:03:00.124Z,80.01
2023-03-05T00:05:29.326Z,80.20
2023-03-05T00:08:03.425Z,80.16
2023-03-05T00:10:31.443Z,80.40
2023-03-05T00:12:59.445Z,80.71
2023-03-05T00:15:27.520Z,80.78
2023-03-05T00:17:56.626Z,81.14
2023-03-05T00:20:23.368Z,81.09
2023-03-05T00:22:50.147Z,81.27
2023-03-05T00:25:17.162Z,81.04
2023-03-05T00:27:43.895Z,80.93
2023-03-05T00:30:11.573Z,81.12
2023-03-05T00:32:38.587Z,81.66
2023-03-05T00:35:07.134Z,82.09
2023-03-05T00:37:34.467Z,82.18
2023-03-05T00:40:01.769Z,82.48
2023-03-05T00:42:30.104Z,83.24
2023-03-05T00:44:56.925Z,83.05
2023-03-05T00:47:23.663Z,82.97
2023-03-05T00:49:50.561Z,83.77
2023-03-05T00:52:17.502Z,83.74
2023-03-05T00:54:49.506Z,83.73
2023-03-05T00:57:20.193Z,84.31
2023-03-05T00:59:47.210Z,83.99
2023-03-05T01:02:17.985Z,84.38
2023-03-05T01:04:47.436Z,84.28
2023-03-05T01:07:15.341Z,84.19
2023-03-05T01:09:42.056Z,84.21
2023-03-05T01:12:11.628Z,85.45
2023-03-05T01:14:42.831Z,85.61
2023-03-05T01:17:09.664Z,85.61
2023-03-05T01:19:36.422Z,86.17
2023-03-05T01:22:10.276Z,86.18
2023-03-05T01:24:37.098Z,86.36
2023-03-05T01:27:04.126Z,88.22
2023-03-05T01:29:33.400Z,89.83
2023-03-05T01:32:01.736Z,91.44
2023-03-05T01:34:28.602Z,91.31
2023-03-05T01:36:58.918Z,91.51
2023-03-05T01:39:25.711Z,91.63
2023-03-05T01:41:52.510Z,91.66
2023-03-05T01:44:26.918Z,93.01
2023-03-05T01:46:54.540Z,93.33
2023-03-05T01:49:24.202Z,93.02
2023-03-05T01:52:09.797Z,92.50
2023-03-05T01:54:47.995Z,92.33
2023-03-05T01:57:27.778Z,92.54
2023-03-05T02:00:03.391Z,93.02
2023-03-05T02:02:42.121Z,93.58
2023-03-05T02:05:31.311Z,93.19
2023-03-05T02:08:02.785Z,92.70
2023-03-05T02:10:34.808Z,92.46
2023-03-05T02:13:03.545Z,92.19
2023-03-05T02:15:32.304Z,91.87
2023-03-05T02:18:00.685Z,91.55
2023-03-05T02:20:32.870Z,91.59
2023-03-05T02:23:13.023Z,91.40
2023-03-05T02:25:41.058Z,91.53
2023-03-05T02:28:18.067Z,91.64
2023-03-05T02:30:46.232Z,91.54
2023-03-05T02:33:18.197Z,91.47
2023-03-05T02:35:45.806Z,91.41
2023-03-05T02:38:15.636Z,91.43
2023-03-05T02:40:42.956Z,91.04
2023-03-05T02:43:13.312Z,90.96
2023-03-05T02:45:40.274Z,91.24
2023-03-05T02:48:09.662Z,91.28
2023-03-05T02:50:39.097Z,91.49
2023-03-05T02:53:08.630Z,91.39
2023-03-05T02:55:35.480Z,91.22
2023-03-05T02:58:03.647Z,90.99
2023-03-05T03:00:30.698Z,91.25
2023-03-05T03:03:17.336Z,91.49
2023-03-05T03:05:48.706Z,91.47
2023-03-05T03:08:18.975Z,94.01
2023-03-05T03:10:45.934Z,95.40
2023-03-05T03:13:23.468Z,94.73
2023-03-05T03:16:11.592Z,95.87
2023-03-05T03:18:42.250Z,96.00
2023-03-05T03:21:36.297Z,95.27
2023-03-05T03:24:26.831Z,95.76
2023-03-05T03:27:02.939Z,96.13
2023-03-05T03:30:17.556Z,95.87
2023-03-05T03:32:54.699Z,95.70
2023-03-05T03:35:37.245Z,95.76
2023-03-05T03:38:11.375Z,95.95
2023-03-05T03:40:54.468Z,96.46
2023-03-05T03:43:23.754Z,96.77
2023-03-05T03:46:02.064Z,97.03
2023-03-05T03:48:52.115Z,96.85
2023-03-05T03:51:33.926Z,96.69
2023-03-05T03:54:15.412Z,96.71
2023-03-05T03:57:01.259Z,96.58
2023-03-05T03:59:31.527Z,95.93
2023-03-05T04:02:00.870Z,95.42
2023-03-05T04:04:52.869Z,94.90
2023-03-05T04:07:30.980Z,93.82
2023-03-05T04:10:09.443Z,92.89
2023-03-05T04:12:51.247Z,91.67
2023-03-05T04:15:27.903Z,90.58
2023-03-05T04:18:27.958Z,89.90
2023-03-05T04:21:14.592Z,89.44
2023-03-05T04:23:57.581Z,89.15
2023-03-05T04:26:39.217Z,88.83
2023-03-05T04:29:06.095Z,88.55
2023-03-05T04:31:36.643Z,88.50
2023-03-05T04:34:07.287Z,88.40
2023-03-05T04:39:36.504Z,88.60
2023-03-05T04:42:18.677Z,88.69
2023-03-05T04:45:26.813Z,88.96
2023-03-05T04:48:00.587Z,88.97
2023-03-05T04:50:31.063Z,89.22
2023-03-05T04:53:00.942Z,89.40
2023-03-05T04:55:32.174Z,89.43
2023-03-05T04:58:05.167Z,89.94
2023-03-05T05:00:33.229Z,89.98
2023-03-05T05:03:00.147Z,89.79
2023-03-05T05:05:28.538Z,89.73
2023-03-05T05:07:58.495Z,89.78
2023-03-05T05:10:32.129Z,89.87
2023-03-05T05:12:59.073Z,90.29
2023-03-05T05:15:28.090Z,90.12
2023-03-05T05:17:57.294Z,90.29
2023-03-05T05:20:28.967Z,90.30
2023-03-05T05:22:57.387Z,90.96
2023-03-05T05:25:25.341Z,90.65
2023-03-05T05:27:59.469Z,90.90
2023-03-05T05:30:28.599Z,90.96
2023-03-05T05:32:58.462Z,90.55
2023-03-05T05:35:27.703Z,90.64
2023-03-05T05:37:54.631Z,90.97
2023-03-05T05:40:21.434Z,91.27
2023-03-05T05:42:54.753Z,91.44
2023-03-05T05:45:21.607Z,91.55
2023-03-05T05:47:50.934Z,91.51
2023-03-05T05:50:22.737Z,91.48
2023-03-05T05:52:51.849Z,91.73
2023-03-05T05:55:19.965Z,91.45
2023-03-05T05:57:46.842Z,91.36
2023-03-05T06:00:14.538Z,91.46
2023-03-05T06:02:43.188Z,91.25
2023-03-05T06:05:14.727Z,91.15
2023-03-05T06:07:44.567Z,91.13
2023-03-05T06:10:13.777Z,90.88
2023-03-05T06:12:42.896Z,91.01
2023-03-05T06:15:21.969Z,91.03
2023-03-05T06:17:54.092Z,90.89
2023-03-05T06:20:42.225Z,90.49
2023-03-05T06:23:09.072Z,90.21
2023-03-05T06:25:37.333Z,89.25
2023-03-05T06:28:04.333Z,87.55
2023-03-05T06:30:31.174Z,87.75
2023-03-05T06:32:58.987Z,87.47
2023-03-05T06:35:41.581Z,85.71
2023-03-05T06:38:30.291Z,83.68
2023-03-05T06:41:14.567Z,83.40
2023-03-05T06:43:49.142Z,82.99
2023-03-05T06:46:54.653Z,82.27
2023-03-05T06:49:24.981Z,82.19
2023-03-05T06:51:55.602Z,81.91
2023-03-05T06:54:40.274Z,81.76
2023-03-05T06:57:12.171Z,81.37
2023-03-05T06:59:53.299Z,78.69
2023-03-05T07:02:24.100Z,79.19
2023-03-05T07:04:53.920Z,80.07
2023-03-05T07:07:27.255Z,80.14
2023-03-05T07:09:58.154Z,80.36
2023-03-05T07:13:05.198Z,79.99
2023-03-05T07:15:44.522Z,79.65
2023-03-05T07:18:23.438Z,79.59
2023-03-05T07:22:21.927Z,79.34
2023-03-05T07:28:58.270Z,78.92
2023-03-05T07:32:35.293Z,78.33
2023-03-05T07:35:51.609Z,76.79
2023-03-05T07:39:42.233Z,76.13
2023-03-05T07:42:38.041Z,76.11
2023-03-05T07:45:40.296Z,76.64
2023-03-05T07:48:38.407Z,75.59
2023-03-05T07:52:14.338Z,74.50
2023-03-05T07:54:29.183Z,74.12
2023-03-05T07:57:21.956Z,73.66
2023-03-05T08:31:31.312Z,71.22
2023-03-05T08:34:15.893Z,69.87
2023-03-05T08:38:28.702Z,69.50
2023-03-05T08:41:42.745Z,70.25
2023-03-05T08:44:25.685Z,70.43
2023-03-05T08:47:05.008Z,70.52
2023-03-05T08:49:39.838Z,70.28
2023-03-05T08:52:22.170Z,70.08
2023-03-05T08:54:50.252Z,70.14
2023-03-05T08:57:27.397Z,70.49
2023-03-05T08:59:59.056Z,70.38
2023-03-05T09:02:26.232Z,70.54
2023-03-05T09:05:01.853Z,69.93
2023-03-05T09:07:32.972Z,69.76
2023-03-05T09:10:23.321Z,70.21
2023-03-05T09:16:37.875Z,69.97
2023-03-05T09:34:52.063Z,68.79
2023-03-05T09:39:14.294Z,68.11
2023-03-05T09:48:15.608Z,67.63
2023-03-05T09:50:41.782Z,67.50
2023-03-05T10:00:33.888Z,66.78
2023-03-05T10:06:52.647Z,64.80
2023-03-05T10:10:23.982Z,64.19
2023-03-05T10:17:17.527Z,66.30
2023-03-05T10:18:17.329Z,62.76
2023-03-05T10:26:34.718Z,62.18
2023-03-05T10:28:21.969Z,62.79
2023-03-05T10:31:12.379Z,63.27
2023-03-05T10:34:14.837Z,63.50
2023-03-05T10:36:57.142Z,64.02
2023-03-05T10:39:51.429Z,64.25
2023-03-05T10:42:32.875Z,64.36
2023-03-05T10:46:08.036Z,64.91
2023-03-05T10:52:40.426Z,65.52
2023-03-05T10:55:16.578Z,65.56
2023-03-05T10:57:11.926Z,66.30
2023-03-05T10:59:03.270Z,67.22
2023-03-05T11:02:01.770Z,67.42
2023-03-05T11:04:49.166Z,67.85
2023-03-05T11:07:15.987Z,67.95
2023-03-05T11:10:14.603Z,67.88
2023-03-05T11:16:21.691Z,68.14
2023-03-05T11:19:41.682Z,68.26
2023-03-05T11:22:15.391Z,68.52
2023-03-05T11:25:22.190Z,68.95
2023-03-05T11:28:33.276Z,69.13
2023-03-05T11:31:35.289Z,69.48
2023-03-05T11:34:37.943Z,69.96
2023-03-05T11:38:30.594Z,69.42
2023-03-05T11:42:00.223Z,68.99
2023-03-05T11:44:53.285Z,69.32
2023-03-05T11:47:45.367Z,69.33
2023-03-05T11:50:35.393Z,69.90
2023-03-05T11:53:46.253Z,69.95
2023-03-05T11:56:51.872Z,69.50
2023-03-05T11:59:54.541Z,70.03
2023-03-05T12:02:37.333Z,70.32
2023-03-05T12:09:37.472Z,68.67
2023-03-05T12:12:48.517Z,68.81
2023-03-05T12:16:07.204Z,69.80
2023-03-05T12:19:30.136Z,69.46
2023-03-05T12:22:15.602Z,69.03
2023-03-05T12:24:51.692Z,68.74
2023-03-05T12:27:40.084Z,68.61
2023-03-05T12:30:35.446Z,69.11
2023-03-05T12:33:16.676Z,69.01
2023-03-05T12:35:54.756Z,69.35
2023-03-05T12:38:33.547Z,69.45
2023-03-05T12:41:37.575Z,69.90
2023-03-05T12:44:09.197Z,70.07
2023-03-05T12:47:18.854Z,70.37
2023-03-05T12:49:55.832Z,69.85
2023-03-05T12:52:31.480Z,69.48
2023-03-05T12:55:08.796Z,69.35
2023-03-05T12:57:45.561Z,69.73
2023-03-05T13:04:03.754Z,69.60
2023-03-05T13:06:37.123Z,69.44
2023-03-05T13:09:21.120Z,69.17
2023-03-05T13:11:51.620Z,69.00
2023-03-05T13:14:40.643Z,69.28
2023-03-05T13:17:29.252Z,68.87
2023-03-05T13:19:58.123Z,69.17
2023-03-05T13:22:28.248Z,69.06
2023-03-05T13:25:22.499Z,68.73
2023-03-05T13:28:15.184Z,68.43
2023-03-05T13:30:55.430Z,68.34
2023-03-05T13:33:30.346Z,67.71
2023-03-05T13:36:24.941Z,67.10
2023-03-05T13:39:07.035Z,67.13
2023-03-05T13:41:34.097Z,66.64
2023-03-05T13:44:32.445Z,67.43
2023-03-05T13:47:20.025Z,67.15
2023-03-05T13:50:06.598Z,66.69
2023-03-05T13:52:39.712Z,66.33
2023-03-05T13:55:18.124Z,66.60
2023-03-05T13:57:53.723Z,66.41
2023-03-05T14:00:28.922Z,66.19
2023-03-05T14:03:06.802Z,66.58
2023-03-05T14:05:47.209Z,66.57
2023-03-05T14:08:33.414Z,66.47
2023-03-05T14:11:24.244Z,66.33
2023-03-05T14:14:07.415Z,66.58
2023-03-05T14:16:36.840Z,66.09
2023-03-05T14:19:34.215Z,65.80
2023-03-05T14:22:25.254Z,66.00
2023-03-05T14:25:02.837Z,66.40
2023-03-05T14:27:39.884Z,66.43
2023-03-05T14:30:21.298Z,66.40
2023-03-05T14:32:54.378Z,66.63
2023-03-05T14:35:26.891Z,66.77
2023-03-05T14:37:56.677Z,67.08
2023-03-05T14:40:33.279Z,67.50
2023-03-05T14:43:03.596Z,67.48
2023-03-05T14:45:43.091Z,67.43
2023-03-05T14:48:33.143Z,67.48
2023-03-05T14:51:04.599Z,67.45
2023-03-05T14:53:39.807Z,67.49
2023-03-05T14:56:31.663Z,67.87
2023-03-05T14:58:59.745Z,67.92
2023-03-05T15:01:27.624Z,68.26
2023-03-05T15:04:05.748Z,68.31
2023-03-05T15:06:42.599Z,68.48
2023-03-05T15:09:11.898Z,68.35
2023-03-05T15:11:41.068Z,68.63
2023-03-05T15:14:16.445Z,68.96
2023-03-05T15:16:46.485Z,69.20
2023-03-05T15:19:23.193Z,69.00
2023-03-05T15:22:08.292Z,69.56
2023-03-05T15:25:04.182Z,70.22
2023-03-05T15:27:40.648Z,70.55
2023-03-05T15:30:20.482Z,70.75
2023-03-05T15:33:06.391Z,70.75
2023-03-05T15:36:10.326Z,71.06
2023-03-05T15:39:12.719Z,70.79
2023-03-05T15:42:06.402Z,71.48
2023-03-05T15:45:06.514Z,71.67
2023-03-05T15:47:53.775Z,72.23
2023-03-05T15:50:25.958Z,72.63
2023-03-05T15:52:59.918Z,72.85
2023-03-05T15:56:01.003Z,73.45
2023-03-05T15:58:39.908Z,73.49
2023-03-05T16:01:23.121Z,74.20
2023-03-05T16:04:17.002Z,74.52
2023-03-05T16:07:09.971Z,74.58
2023-03-05T16:09:53.235Z,75.03
2023-03-05T16:12:50.252Z,75.58
2023-03-05T16:15:21.041Z,75.59
2023-03-05T16:17:52.773Z,76.07
2023-03-05T16:20:33.622Z,76.05
2023-03-05T16:23:21.070Z,76.44
2023-03-05T16:25:52.846Z,76.16
2023-03-05T16:28:34.518Z,75.69
2023-03-05T16:31:50.743Z,75.46
2023-03-05T16:34:32.265Z,75.56
2023-03-05T16:37:10.811Z,75.94
2023-03-05T16:39:50.762Z,75.44
2023-03-05T16:42:18.733Z,75.27
2023-03-05T16:44:49.330Z,75.30
2023-03-05T16:47:18.325Z,75.33
2023-03-05T16:49:45.400Z,75.62
2023-03-05T16:52:18.818Z,75.39
2023-03-05T16:54:46.615Z,75.62
2023-03-05T16:57:18.933Z,75.95
2023-03-05T16:59:45.908Z,75.80
2023-03-05T17:02:19.963Z,75.86
2023-03-05T17:04:48.035Z,76.30
2023-03-05T17:07:14.834Z,76.15
2023-03-05T17:09:43.877Z,75.58
2023-03-05T17:12:11.933Z,75.95
2023-03-05T17:14:41.178Z,75.59
2023-03-05T17:17:08.201Z,75.64
2023-03-05T17:19:38.768Z,75.70
2023-03-05T17:22:09.063Z,75.93
2023-03-05T17:24:37.396Z,75.93
2023-03-05T17:27:04.366Z,76.32
2023-03-05T17:29:33.790Z,76.34
2023-03-05T17:32:02.347Z,76.00
2023-03-05T17:34:36.699Z,75.59
2023-03-05T17:37:06.819Z,74.58
2023-03-05T17:39:49.097Z,74.36
2023-03-05T17:42:23.431Z,74.46
2023-03-05T17:44:50.446Z,74.62
2023-03-05T17:47:17.946Z,74.45
2023-03-05T17:49:49.758Z,74.31
2023-03-05T17:52:20.559Z,74.46
2023-03-05T17:54:49.802Z,74.57
2023-03-05T17:57:17.002Z,74.59
2023-03-05T17:59:50.194Z,74.74
2023-03-05T18:02:17.599Z,74.76
2023-03-05T18:04:46.885Z,74.97
2023-03-05T18:07:13.925Z,75.05
2023-03-05T18:09:40.891Z,75.44
2023-03-05T18:12:14.633Z,75.85
2023-03-05T18:14:58.981Z,76.11
2023-03-05T18:17:38.412Z,76.31
2023-03-05T18:20:27.681Z,76.53
2023-03-05T18:23:16.370Z,76.18
2023-03-05T18:26:09.573Z,76.05
2023-03-05T18:29:33.606Z,75.73
2023-03-05T18:32:18.308Z,75.65
2023-03-05T18:35:03.649Z,75.81
2023-03-05T18:37:45.067Z,75.69
2023-03-05T18:40:41.197Z,76.18
2023-03-05T18:43:21.378Z,75.76
2023-03-05T18:46:18.851Z,75.43
2023-03-05T18:48:47.910Z,75.38
2023-03-05T18:51:30.164Z,75.23
2023-03-05T18:54:08.157Z,75.85
2023-03-05T18:56:43.572Z,75.85
2023-03-05T18:59:11.756Z,75.33
2023-03-05T19:01:38.713Z,75.44
2023-03-05T19:04:09.707Z,75.67
2023-03-05T19:06:37.981Z,75.54
2023-03-05T19:09:20.351Z,75.82
2023-03-05T19:12:07.581Z,75.74
2023-03-05T19:14:36.869Z,75.21
2023-03-05T19:17:08.946Z,74.32
2023-03-05T19:19:36.091Z,73.63
2023-03-05T19:22:03.677Z,72.90
2023-03-05T19:24:39.349Z,72.93
2023-03-05T19:27:14.379Z,73.08
2023-03-05T19:29:46.667Z,73.28
2023-03-05T19:32:33.971Z,73.76
2023-03-05T19:35:27.486Z,74.11
2023-03-05T19:38:02.031Z,74.06
2023-03-05T19:40:29.472Z,73.91
2023-03-05T19:42:58.461Z,74.16
2023-03-05T19:45:25.918Z,74.33
2023-03-05T19:47:52.789Z,74.98
2023-03-05T19:50:22.972Z,75.16
2023-03-05T19:52:51.965Z,75.56
2023-03-05T19:55:19.214Z,75.42
2023-03-05T19:57:50.317Z,75.37
2023-03-05T20:00:17.985Z,75.86
2023-03-05T20:02:48.317Z,76.05
2023-03-05T20:05:15.441Z,76.04
2023-03-05T20:07:43.620Z,76.13
2023-03-05T20:10:15.060Z,76.43
2023-03-05T20:12:44.509Z,76.38
2023-03-05T20:15:12.024Z,76.61
2023-03-05T20:17:40.387Z,76.34
2023-03-05T20:20:11.302Z,76.54
2023-03-05T20:22:44.171Z,76.55
2023-03-05T20:25:24.285Z,76.75
2023-03-05T20:27:54.648Z,76.96
2023-03-05T20:30:22.202Z,76.67
2023-03-05T20:32:49.502Z,77.07
2023-03-05T20:35:18.944Z,77.15
2023-03-05T20:38:24.611Z,77.57
2023-03-05T20:41:04.003Z,77.90
2023-03-05T20:43:44.533Z,78.39
2023-03-05T20:46:23.964Z,78.62
2023-03-05T20:48:54.173Z,78.70
2023-03-05T20:51:25.739Z,78.71
2023-03-05T20:54:01.747Z,78.65
2023-03-05T20:56:43.267Z,78.40
2023-03-05T20:59:39.442Z,78.28
2023-03-05T21:02:08.827Z,78.09
2023-03-05T21:04:39.308Z,77.83
2023-03-05T21:07:09.057Z,77.76
2023-03-05T21:09:36.719Z,78.03
2023-03-05T21:12:10.261Z,78.29
2023-03-05T21:14:44.106Z,78.18
2023-03-05T21:17:17.465Z,78.24
2023-03-05T21:20:06.331Z,78.24
2023-03-05T21:22:51.669Z,78.45
2023-03-05T21:25:35.893Z,78.40
2023-03-05T21:28:26.454Z,78.45
2023-03-05T21:31:17.158Z,78.66
2023-03-05T21:33:55.360Z,78.69
2023-03-05T21:36:25.921Z,78.82
2023-03-05T21:38:55.777Z,78.84
2023-03-05T21:41:30.648Z,78.76
2023-03-05T21:44:03.904Z,79.00
2023-03-05T21:46:56.772Z,79.12
2023-03-05T21:49:32.995Z,79.23
2023-03-05T21:52:13.134Z,79.42
2023-03-05T21:54:52.500Z,79.50
2023-03-05T21:57:25.949Z,79.52
2023-03-05T22:00:24.597Z,79.74
2023-03-05T22:03:04.673Z,79.89
2023-03-05T22:05:49.791Z,80.11
2023-03-05T22:08:21.547Z,80.30
2023-03-05T22:10:59.090Z,80.31
2023-03-05T22:13:35.005Z,80.29
2023-03-05T22:16:25.730Z,80.36
2023-03-05T22:19:17.745Z,80.28
2023-03-05T22:21:52.116Z,80.34
2023-03-05T22:24:24.565Z,80.38
2023-03-05T22:27:01.442Z,80.23
2023-03-05T22:29:34.889Z,80.18
2023-03-05T22:32:07.340Z,80.07
2023-03-05T22:34:41.493Z,79.60
2023-03-05T22:37:32.396Z,79.77
2023-03-05T22:40:39.523Z,80.16
2023-03-05T22:43:20.145Z,80.12
2023-03-05T22:45:54.955Z,80.13
2023-03-05T22:48:32.471Z,80.30
2023-03-05T22:51:14.276Z,80.16
2023-03-05T22:53:53.239Z,80.45
2023-03-05T22:56:32.819Z,80.54
2023-03-05T22:59:02.474Z,80.83
2023-03-05T23:01:43.340Z,81.39
2023-03-05T23:04:55.194Z,81.71
2023-03-05T23:07:34.508Z,81.86
2023-03-05T23:10:28.458Z,82.16
2023-03-05T23:13:28.457Z,81.98
2023-03-05T23:16:18.299Z,82.11
2023-03-05T23:18:51.867Z,82.43
2023-03-05T23:21:29.681Z,82.67
2023-03-05T23:24:23.047Z,83.03
2023-03-05T23:27:07.107Z,83.15
2023-03-05T23:30:18.405Z,83.12
2023-03-05T23:33:21.531Z,83.39
2023-03-05T23:36:20.718Z,83.78
2023-03-05T23:39:02.845Z,84.41
2023-03-05T23:41:30.039Z,84.90
2023-03-05T23:44:09.552Z,84.78
2023-03-05T23:46:50.867Z,84.92
2023-03-05T23:49:26.139Z,85.24
2023-03-05T23:51:55.417Z,85.44
2023-03-05T23:54:24.910Z,85.43
2023-03-05T23:57:02.858Z,85.21
2023-03-05T23:59:39.499Z,85.30
